Time;durP1;ratioP1;P1;durP2;ratioP2;P2;SDS_P1;SDS_P2;PMS_P1;PMS_P2;Temp;Humidity;BMP_temperature;BMP_pressure;BME280_temperature;BME280_humidity;BME280_pressure;Samples;Min_cycle;Max_cycle;Signal;HPM_P1;HPM_P2
2022/07/04 00:00:47;;;;;;;6.38;2.70;;;;;;;;;;5023586;28;20145;-68
2022/07/04 00:03:16;;;;;;;6.03;3.05;;;;;;;;;;5021106;28;20129;-68
2022/07/04 00:05:43;;;;;;;7.30;3.33;;;;;;;;;;5023305;28;20053;-68
2022/07/04 00:08:10;;;;;;;6.47;3.10;;;;;;;;;;5020446;28;20436;-68
2022/07/04 00:10:37;;;;;;;6.30;3.10;;;;;;;;;;5022857;28;20037;-68
2022/07/04 00:13:05;;;;;;;4.63;2.95;;;;;;;;;;5019407;28;20127;-69
2022/07/04 00:15:32;;;;;;;8.38;3.33;;;;;;;;;;5021774;28;20084;-68
2022/07/04 00:17:59;;;;;;;6.65;3.35;;;;;;;;;;5022241;28;20045;-67
2022/07/04 00:20:28;;;;;;;4.97;2.90;;;;;;;;;;5020086;28;20498;-68
2022/07/04 00:22:56;;;;;;;7.07;3.10;;;;;;;;;;5021757;28;20046;-68
2022/07/04 00:25:23;;;;;;;4.82;2.95;;;;;;;;;;5020938;28;20053;-68
2022/07/04 00:27:50;;;;;;;7.43;3.33;;;;;;;;;;5019330;28;20064;-68
2022/07/04 00:30:18;;;;;;;5.78;2.92;;;;;;;;;;5001168;28;20057;-68
2022/07/04 00:32:45;;;;;;;5.38;3.38;;;;;;;;;;5022376;28;20042;-68
2022/07/04 00:35:12;;;;;;;5.47;2.88;;;;;;;;;;5017490;28;20049;-68
2022/07/04 00:37:41;;;;;;;7.07;3.00;;;;;;;;;;5006632;28;20057;-68
2022/07/04 00:40:08;;;;;;;7.13;3.10;;;;;;;;;;5020938;28;20048;-68
2022/07/04 00:42:35;;;;;;;10.02;3.65;;;;;;;;;;5020976;28;20099;-68
2022/07/04 00:45:03;;;;;;;6.25;3.33;;;;;;;;;;5013583;28;20049;-68
2022/07/04 00:47:30;;;;;;;8.93;3.50;;;;;;;;;;5020755;28;20056;-68
2022/07/04 00:49:58;;;;;;;10.00;3.25;;;;;;;;;;5003684;28;20451;-68
2022/07/04 00:52:25;;;;;;;6.13;3.13;;;;;;;;;;5019264;28;20060;-68
2022/07/04 00:54:54;;;;;;;6.22;3.63;;;;;;;;;;5006650;28;20053;-68
2022/07/04 00:57:21;;;;;;;6.60;3.42;;;;;;;;;;4997609;28;20734;-68
2022/07/04 00:59:48;;;;;;;7.32;2.92;;;;;;;;;;5018557;28;20065;-68
2022/07/04 01:02:16;;;;;;;8.13;3.90;;;;;;;;;;5020446;28;20045;-67
2022/07/04 01:04:43;;;;;;;8.57;3.70;;;;;;;;;;4998630;28;20051;-68
2022/07/04 01:07:13;;;;;;;8.07;3.40;;;;;;;;;;5018416;28;20073;-68
2022/07/04 01:09:40;;;;;;;8.10;3.50;;;;;;;;;;5018274;28;20049;-68
2022/07/04 01:12:09;;;;;;;9.35;3.42;;;;;;;;;;5021313;28;20053;-68
2022/07/04 01:14:38;;;;;;;9.25;3.67;;;;;;;;;;5016701;28;20123;-68
2022/07/04 01:17:06;;;;;;;7.88;2.97;;;;;;;;;;5015693;28;20158;-68
2022/07/04 01:19:33;;;;;;;9.98;3.70;;;;;;;;;;5018399;28;20730;-68
2022/07/04 01:22:07;;;;;;;8.20;3.70;;;;;;;;;;5019990;28;20053;-67
2022/07/04 01:24:34;;;;;;;7.03;3.30;;;;;;;;;;5019657;28;20197;-68
2022/07/04 01:27:01;;;;;;;6.97;3.50;;;;;;;;;;5018052;28;20057;-67
2022/07/04 01:29:29;;;;;;;6.63;3.30;;;;;;;;;;5021619;28;20612;-67
2022/07/04 01:31:56;;;;;;;7.22;3.65;;;;;;;;;;5000668;28;20057;-68
2022/07/04 01:34:23;;;;;;;9.18;3.58;;;;;;;;;;5017329;28;20518;-68
2022/07/04 01:36:50;;;;;;;9.57;3.40;;;;;;;;;;5016968;28;20041;-67
2022/07/04 01:39:19;;;;;;;9.70;3.95;;;;;;;;;;5019658;28;20053;-68
2022/07/04 01:41:46;;;;;;;10.02;3.67;;;;;;;;;;5015926;28;20041;-67
2022/07/04 01:44:13;;;;;;;9.02;4.45;;;;;;;;;;5017407;28;20100;-68
2022/07/04 01:46:40;;;;;;;6.75;3.53;;;;;;;;;;5003539;28;20076;-68
2022/07/04 01:49:08;;;;;;;6.50;3.38;;;;;;;;;;5000318;28;20061;-68
2022/07/04 01:51:35;;;;;;;5.38;3.53;;;;;;;;;;5018490;28;20119;-68
2022/07/04 01:54:03;;;;;;;6.32;3.30;;;;;;;;;;5017489;28;20045;-67
2022/07/04 01:56:31;;;;;;;6.82;3.80;;;;;;;;;;5019846;28;20045;-68
2022/07/04 01:59:01;;;;;;;7.72;3.65;;;;;;;;;;5019841;28;20565;-67
2022/07/04 02:01:30;;;;;;;8.95;3.60;;;;;;;;;;5017442;28;20076;-68
2022/07/04 02:03:58;;;;;;;7.40;3.72;;;;;;;;;;5019178;28;20049;-68
2022/07/04 02:06:26;;;;;;;7.55;3.50;;;;;;;;;;5020235;28;20041;-68
2022/07/04 02:14:25;;;;;;;10.32;3.83;;;;;;;;;;5019224;28;20041;-68
2022/07/04 02:16:53;;;;;;;9.63;4.47;;;;;;;;;;5020272;28;20060;-68
2022/07/04 02:19:20;;;;;;;10.20;3.83;;;;;;;;;;5014000;28;20111;-68
2022/07/04 02:21:47;;;;;;;15.15;4.43;;;;;;;;;;5021080;28;20111;-68
2022/07/04 02:24:14;;;;;;;9.00;3.92;;;;;;;;;;5002587;28;20431;-68
2022/07/04 02:26:43;;;;;;;9.65;3.80;;;;;;;;;;5002888;28;20053;-68
2022/07/04 02:29:10;;;;;;;6.60;3.40;;;;;;;;;;5009633;28;20050;-69
2022/07/04 02:31:37;;;;;;;8.98;3.58;;;;;;;;;;5017919;28;20076;-67
2022/07/04 02:34:05;;;;;;;8.05;3.78;;;;;;;;;;5023168;28;20387;-68
2022/07/04 02:36:32;;;;;;;8.20;3.53;;;;;;;;;;5020752;28;20059;-68
2022/07/04 02:38:59;;;;;;;7.18;3.25;;;;;;;;;;5022634;28;20095;-68
2022/07/04 02:41:26;;;;;;;9.70;4.03;;;;;;;;;;5024061;28;20045;-68
2022/07/04 02:43:55;;;;;;;6.80;3.45;;;;;;;;;;5008461;28;20049;-68
2022/07/04 02:46:22;;;;;;;9.15;3.20;;;;;;;;;;5022312;28;20069;-67
2022/07/04 02:48:49;;;;;;;10.50;3.60;;;;;;;;;;5024956;28;20408;-68
2022/07/04 02:51:16;;;;;;;4.40;3.17;;;;;;;;;;5024181;28;20053;-68
2022/07/04 02:53:44;;;;;;;12.13;4.00;;;;;;;;;;5006733;28;20276;-68
2022/07/04 02:56:11;;;;;;;11.05;4.05;;;;;;;;;;5003813;28;20049;-67
2022/07/04 02:58:38;;;;;;;8.95;3.90;;;;;;;;;;5023911;28;20138;-68
2022/07/04 03:01:07;;;;;;;7.68;4.20;;;;;;;;;;5017790;28;20113;-67
2022/07/04 03:03:34;;;;;;;11.27;4.00;;;;;;;;;;5021495;28;20053;-67
2022/07/04 03:06:01;;;;;;;10.88;3.92;;;;;;;;;;5023565;28;20061;-67
2022/07/04 03:08:29;;;;;;;9.52;4.00;;;;;;;;;;5019228;28;20042;-68
2022/07/04 03:10:56;;;;;;;10.85;4.40;;;;;;;;;;5023693;28;20049;-67
2022/07/04 03:13:24;;;;;;;9.18;3.83;;;;;;;;;;5021213;28;20460;-68
2022/07/04 03:15:51;;;;;;;7.38;4.15;;;;;;;;;;5019547;28;20045;-68
2022/07/04 03:18:20;;;;;;;9.82;4.10;;;;;;;;;;5022524;28;20057;-68
2022/07/04 03:20:47;;;;;;;12.18;4.07;;;;;;;;;;5018677;28;20128;-68
2022/07/04 03:23:14;;;;;;;8.25;4.40;;;;;;;;;;5017912;28;20103;-67
2022/07/04 03:25:41;;;;;;;7.88;3.90;;;;;;;;;;5022166;28;20099;-68
2022/07/04 03:28:09;;;;;;;10.20;4.43;;;;;;;;;;5021799;28;20104;-67
2022/07/04 03:30:37;;;;;;;7.75;3.72;;;;;;;;;;5023853;28;20050;-68
2022/07/04 03:33:04;;;;;;;9.35;3.97;;;;;;;;;;5021454;28;20053;-68
2022/07/04 03:35:33;;;;;;;9.63;4.32;;;;;;;;;;5021347;28;20706;-68
2022/07/04 03:38:00;;;;;;;9.32;4.38;;;;;;;;;;5005265;28;20111;-67
2022/07/04 03:40:30;;;;;;;7.22;4.10;;;;;;;;;;5022689;28;20053;-68
2022/07/04 03:42:58;;;;;;;9.90;3.80;;;;;;;;;;5020944;28;20060;-68
2022/07/04 03:45:26;;;;;;;10.45;4.32;;;;;;;;;;5005628;28;20140;-68
2022/07/04 03:47:53;;;;;;;10.27;4.00;;;;;;;;;;5019883;28;20054;-68
2022/07/04 03:50:20;;;;;;;8.23;4.38;;;;;;;;;;5022997;28;20053;-67
2022/07/04 03:52:49;;;;;;;14.45;4.72;;;;;;;;;;5023214;28;20049;-68
2022/07/04 03:55:16;;;;;;;8.05;4.05;;;;;;;;;;5019255;28;20045;-67
2022/07/04 03:57:43;;;;;;;12.18;4.53;;;;;;;;;;5022138;28;20061;-68
2022/07/04 04:00:11;;;;;;;11.10;4.30;;;;;;;;;;5005681;28;20053;-67
2022/07/04 04:02:38;;;;;;;8.85;4.07;;;;;;;;;;5021534;28;20083;-68
2022/07/04 04:07:53;;;;;;;8.07;3.85;;;;;;;;;;5020994;28;20077;-68
2022/07/04 04:10:20;;;;;;;13.82;4.32;;;;;;;;;;5022269;28;20053;-68
2022/07/04 04:12:47;;;;;;;11.20;3.97;;;;;;;;;;5023957;28;20053;-68
2022/07/04 04:15:14;;;;;;;8.77;4.15;;;;;;;;;;5005303;28;20056;-67
2022/07/04 04:17:41;;;;;;;9.25;3.92;;;;;;;;;;5019922;28;20183;-68
2022/07/04 04:20:09;;;;;;;7.82;3.60;;;;;;;;;;5003869;28;20068;-67
2022/07/04 04:22:37;;;;;;;10.13;3.88;;;;;;;;;;5022734;28;20424;-68
2022/07/04 04:25:06;;;;;;;8.10;4.03;;;;;;;;;;5025331;28;20064;-67
2022/07/04 04:27:33;;;;;;;7.75;3.78;;;;;;;;;;5018574;28;20072;-68
2022/07/04 04:30:00;;;;;;;8.32;3.55;;;;;;;;;;5020735;28;20050;-68
2022/07/04 04:32:27;;;;;;;5.50;3.40;;;;;;;;;;5022528;28;20049;-67
2022/07/04 04:34:55;;;;;;;7.40;3.20;;;;;;;;;;5022560;28;20045;-68
2022/07/04 04:37:22;;;;;;;9.57;3.28;;;;;;;;;;5022612;28;20136;-68
2022/07/04 04:39:49;;;;;;;9.32;3.60;;;;;;;;;;5021489;28;20049;-68
2022/07/04 04:42:18;;;;;;;6.43;3.25;;;;;;;;;;5011068;28;20109;-68
2022/07/04 04:44:45;;;;;;;9.38;3.97;;;;;;;;;;5019491;28;20053;-68
2022/07/04 04:47:12;;;;;;;7.13;3.42;;;;;;;;;;5018018;28;20061;-68
2022/07/04 04:49:39;;;;;;;11.32;3.80;;;;;;;;;;5007398;28;20111;-68
2022/07/04 04:52:07;;;;;;;10.52;3.33;;;;;;;;;;5017932;28;20061;-68
2022/07/04 04:54:34;;;;;;;12.82;3.90;;;;;;;;;;5022302;28;20068;-68
2022/07/04 04:57:01;;;;;;;7.82;3.20;;;;;;;;;;5020607;28;20045;-67
2022/07/04 04:59:30;;;;;;;7.68;3.00;;;;;;;;;;5013363;28;20749;-68
2022/07/04 05:01:57;;;;;;;6.70;3.10;;;;;;;;;;5015441;28;20053;-67
2022/07/04 05:04:25;;;;;;;9.15;3.35;;;;;;;;;;5003906;28;20049;-67
2022/07/04 05:06:52;;;;;;;10.40;3.28;;;;;;;;;;4998805;28;20050;-69
2022/07/04 05:09:20;;;;;;;10.82;3.58;;;;;;;;;;5019180;28;20495;-69
2022/07/04 05:11:48;;;;;;;8.65;3.20;;;;;;;;;;5005347;28;20357;-68
2022/07/04 05:14:15;;;;;;;9.45;3.38;;;;;;;;;;5012030;28;20049;-69
2022/07/04 05:16:43;;;;;;;12.93;3.53;;;;;;;;;;5017151;28;20079;-69
2022/07/04 05:19:11;;;;;;;9.13;3.30;;;;;;;;;;5015058;28;20048;-68
2022/07/04 05:21:38;;;;;;;6.85;3.10;;;;;;;;;;5016724;28;20049;-68
2022/07/04 05:24:06;;;;;;;7.75;3.25;;;;;;;;;;5016803;28;20665;-67
2022/07/04 05:26:33;;;;;;;9.50;3.13;;;;;;;;;;5017996;28;20045;-68
2022/07/04 05:29:00;;;;;;;6.07;3.40;;;;;;;;;;5001022;28;20439;-68
2022/07/04 05:31:27;;;;;;;6.38;3.20;;;;;;;;;;5019966;28;20048;-68
2022/07/04 05:33:56;;;;;;;6.68;3.38;;;;;;;;;;5016297;28;20053;-68
2022/07/04 05:36:23;;;;;;;7.30;2.95;;;;;;;;;;5017715;28;20046;-69
2022/07/04 05:38:51;;;;;;;8.52;3.53;;;;;;;;;;5014327;28;20488;-68
2022/07/04 05:41:18;;;;;;;6.80;3.20;;;;;;;;;;5018123;28;20115;-68
2022/07/04 05:43:45;;;;;;;6.75;3.30;;;;;;;;;;5018678;28;20050;-68
2022/07/04 05:46:12;;;;;;;7.05;3.15;;;;;;;;;;5020742;28;20393;-68
2022/07/04 05:48:40;;;;;;;9.30;3.30;;;;;;;;;;5000183;28;20049;-68
2022/07/04 05:51:08;;;;;;;9.13;3.30;;;;;;;;;;5018677;28;20058;-68
2022/07/04 05:53:36;;;;;;;12.07;3.10;;;;;;;;;;5014304;28;20054;-68
2022/07/04 05:56:04;;;;;;;8.13;3.08;;;;;;;;;;5020178;28;20529;-69
2022/07/04 05:58:31;;;;;;;7.30;3.17;;;;;;;;;;5011962;28;20108;-68
2022/07/04 06:00:58;;;;;;;7.32;2.92;;;;;;;;;;5019803;28;20391;-68
2022/07/04 06:03:25;;;;;;;7.07;2.70;;;;;;;;;;5017740;28;20053;-69
2022/07/04 06:05:53;;;;;;;4.85;2.63;;;;;;;;;;5018656;28;20056;-68
2022/07/04 06:08:22;;;;;;;5.18;2.65;;;;;;;;;;5019645;28;20130;-69
2022/07/04 06:10:49;;;;;;;7.80;2.80;;;;;;;;;;5005585;28;20045;-68
2022/07/04 06:13:17;;;;;;;6.07;3.08;;;;;;;;;;5018066;28;21014;-68
2022/07/04 06:15:44;;;;;;;6.90;2.65;;;;;;;;;;5020899;28;20054;-68
2022/07/04 06:18:12;;;;;;;6.63;2.28;;;;;;;;;;5016966;28;20143;-68
2022/07/04 06:20:39;;;;;;;5.03;1.70;;;;;;;;;;5015944;28;20049;-68
2022/07/04 06:23:07;;;;;;;5.03;1.20;;;;;;;;;;5014974;28;20076;-68
2022/07/04 06:25:36;;;;;;;3.42;1.10;;;;;;;;;;4998856;28;20681;-67
2022/07/04 06:28:04;;;;;;;6.47;1.20;;;;;;;;;;5011954;28;20050;-68
2022/07/04 06:30:31;;;;;;;5.72;1.02;;;;;;;;;;5018390;28;20046;-68
2022/07/04 06:32:59;;;;;;;4.90;1.30;;;;;;;;;;5017784;28;20143;-67
2022/07/04 06:35:45;;;;;;;8.05;1.63;;;;;;;;;;5020376;28;20037;-68
2022/07/04 06:38:12;;;;;;;2.90;0.90;;;;;;;;;;5011830;28;20133;-68
2022/07/04 06:40:42;;;;;;;3.50;1.20;;;;;;;;;;5019708;28;20049;-68
2022/07/04 06:43:09;;;;;;;4.20;0.98;;;;;;;;;;5014216;28;20045;-68
2022/07/04 06:45:37;;;;;;;4.60;1.30;;;;;;;;;;5004179;28;20919;-68
2022/07/04 06:48:04;;;;;;;3.65;1.08;;;;;;;;;;5021235;28;20061;-68
2022/07/04 06:50:33;;;;;;;7.35;1.08;;;;;;;;;;5017702;28;20049;-68
2022/07/04 06:53:00;;;;;;;4.03;1.20;;;;;;;;;;5017972;28;20100;-69
2022/07/04 06:55:27;;;;;;;3.83;1.02;;;;;;;;;;5011897;28;20088;-69
2022/07/04 06:57:56;;;;;;;3.38;0.90;;;;;;;;;;5016247;28;20058;-68
2022/07/04 07:00:23;;;;;;;2.88;1.10;;;;;;;;;;5016412;28;20057;-68
2022/07/04 07:02:51;;;;;;;4.85;1.20;;;;;;;;;;5020871;28;20045;-69
2022/07/04 07:05:18;;;;;;;4.85;0.88;;;;;;;;;;5017051;28;20049;-69
2022/07/04 07:07:45;;;;;;;5.18;1.30;;;;;;;;;;5017158;28;20045;-68
2022/07/04 07:10:12;;;;;;;5.35;1.15;;;;;;;;;;5019466;28;20041;-68
2022/07/04 07:12:39;;;;;;;3.85;1.33;;;;;;;;;;5017322;28;20053;-68
2022/07/04 07:15:09;;;;;;;6.60;0.90;;;;;;;;;;5003873;28;20053;-68
2022/07/04 07:17:36;;;;;;;1.65;0.52;;;;;;;;;;5014916;28;20072;-69
2022/07/04 07:20:03;;;;;;;3.00;0.80;;;;;;;;;;5017029;28;20057;-69
2022/07/04 07:22:31;;;;;;;2.88;1.02;;;;;;;;;;5008803;28;20054;-68
2022/07/04 07:24:58;;;;;;;5.93;0.95;;;;;;;;;;5019139;28;20057;-68
2022/07/04 07:27:25;;;;;;;7.07;1.05;;;;;;;;;;5021253;28;20053;-68
2022/07/04 07:29:52;;;;;;;2.65;0.85;;;;;;;;;;5018543;28;20042;-68
2022/07/04 07:32:21;;;;;;;2.90;1.08;;;;;;;;;;5008183;28;20065;-68
2022/07/04 07:34:48;;;;;;;3.30;0.98;;;;;;;;;;5020912;28;20053;-68
2022/07/04 07:37:17;;;;;;;5.68;0.95;;;;;;;;;;5020411;28;20487;-68
2022/07/04 07:39:44;;;;;;;5.10;1.00;;;;;;;;;;5021078;28;20815;-68
2022/07/04 07:42:11;;;;;;;6.15;1.02;;;;;;;;;;5007938;28;20188;-68
2022/07/04 07:44:39;;;;;;;3.70;1.10;;;;;;;;;;5003664;28;20057;-68
2022/07/04 07:47:06;;;;;;;6.40;1.00;;;;;;;;;;5018598;28;20067;-69
2022/07/04 07:49:35;;;;;;;2.33;0.90;;;;;;;;;;5013038;28;20049;-68
2022/07/04 07:52:02;;;;;;;2.83;0.88;;;;;;;;;;5021605;28;20069;-68
2022/07/04 07:54:29;;;;;;;7.15;1.83;;;;;;;;;;5023124;28;20060;-68
2022/07/04 07:56:56;;;;;;;5.25;1.10;;;;;;;;;;5021867;28;20106;-68
2022/07/04 07:59:23;;;;;;;4.50;1.20;;;;;;;;;;5005806;28;20068;-68
2022/07/04 08:01:51;;;;;;;3.80;0.80;;;;;;;;;;5018763;28;20053;-69
2022/07/04 08:04:35;;;;;;;3.53;1.30;;;;;;;;;;5016651;28;20045;-69
2022/07/04 08:07:04;;;;;;;2.83;0.98;;;;;;;;;;5002137;28;20121;-68
2022/07/04 08:09:32;;;;;;;7.22;1.05;;;;;;;;;;5003718;28;20053;-68
2022/07/04 08:12:00;;;;;;;4.68;1.02;;;;;;;;;;5018199;28;20062;-69
2022/07/04 08:14:27;;;;;;;3.17;0.85;;;;;;;;;;5002993;28;20423;-68
2022/07/04 08:16:55;;;;;;;2.38;1.00;;;;;;;;;;5021698;28;20056;-68
2022/07/04 08:19:22;;;;;;;4.65;1.10;;;;;;;;;;5018744;28;20065;-69
2022/07/04 08:21:49;;;;;;;4.90;1.00;;;;;;;;;;5016666;28;20049;-68
2022/07/04 08:24:18;;;;;;;4.35;1.30;;;;;;;;;;4999416;28;20057;-69
2022/07/04 08:26:47;;;;;;;9.07;1.30;;;;;;;;;;5019179;28;20046;-68
2022/07/04 08:29:15;;;;;;;9.18;1.73;;;;;;;;;;5017383;28;20045;-68
2022/07/04 08:31:42;;;;;;;5.75;1.58;;;;;;;;;;5018132;28;20139;-68
2022/07/04 08:34:09;;;;;;;6.25;1.40;;;;;;;;;;4998137;28;20045;-68
2022/07/04 08:36:37;;;;;;;6.60;1.52;;;;;;;;;;5001457;28;20054;-68
2022/07/04 08:39:04;;;;;;;5.22;1.33;;;;;;;;;;5014964;28;20054;-69
2022/07/04 08:41:37;;;;;;;8.55;1.58;;;;;;;;;;5018981;28;20060;-69
2022/07/04 08:44:05;;;;;;;5.25;1.30;;;;;;;;;;5018846;28;20120;-69
2022/07/04 08:46:32;;;;;;;6.68;1.45;;;;;;;;;;5020624;28;20054;-69
2022/07/04 08:49:03;;;;;;;4.78;1.20;;;;;;;;;;4997622;28;20470;-68
2022/07/04 08:51:34;;;;;;;3.65;1.10;;;;;;;;;;5017092;28;20412;-68
2022/07/04 08:58:25;;;;;;;7.40;1.60;;;;;;;;;;5018880;28;20046;-69
2022/07/04 08:59:38;;;;;;;7.90;1.50;;;;;;;;;;5017098;28;20606;-68
2022/07/04 09:02:05;;;;;;;7.47;1.42;;;;;;;;;;5020042;28;20057;-69
2022/07/04 09:04:33;;;;;;;6.18;1.35;;;;;;;;;;5020208;28;20045;-68
2022/07/04 09:07:00;;;;;;;4.75;1.17;;;;;;;;;;5018760;28;20200;-68
2022/07/04 09:09:28;;;;;;;11.00;1.38;;;;;;;;;;5001807;28;20119;-68
2022/07/04 09:11:56;;;;;;;8.52;1.55;;;;;;;;;;5018965;28;20042;-69
2022/07/04 09:14:24;;;;;;;3.03;0.90;;;;;;;;;;5022881;28;20072;-69
2022/07/04 09:16:53;;;;;;;4.57;1.00;;;;;;;;;;5018807;28;20045;-68
2022/07/04 09:19:21;;;;;;;4.13;1.27;;;;;;;;;;5020399;28;20128;-69
2022/07/04 09:21:48;;;;;;;3.90;1.27;;;;;;;;;;5003022;28;20061;-68
2022/07/04 09:24:15;;;;;;;5.45;1.08;;;;;;;;;;5020345;28;20107;-69
2022/07/04 09:26:45;;;;;;;2.95;1.23;;;;;;;;;;5019679;28;20049;-69
2022/07/04 09:29:14;;;;;;;6.28;1.00;;;;;;;;;;5018133;28;20057;-69
2022/07/04 09:31:41;;;;;;;3.58;1.33;;;;;;;;;;5018170;28;20056;-69
2022/07/04 09:34:09;;;;;;;5.95;1.38;;;;;;;;;;5015099;28;20052;-69
2022/07/04 09:36:40;;;;;;;3.53;0.93;;;;;;;;;;5012707;28;20045;-68
2022/07/04 09:39:12;;;;;;;2.58;0.82;;;;;;;;;;5017113;28;20107;-68
2022/07/04 09:41:51;;;;;;;9.50;2.33;;;;;;;;;;5021767;28;20050;-69
2022/07/04 09:44:20;;;;;;;3.42;1.30;;;;;;;;;;5015853;28;20049;-69
2022/07/04 09:46:47;;;;;;;4.13;1.20;;;;;;;;;;5020133;28;21242;-69
2022/07/04 09:49:14;;;;;;;3.53;1.05;;;;;;;;;;5017097;28;20549;-68
2022/07/04 09:51:43;;;;;;;7.05;1.20;;;;;;;;;;5010952;28;20057;-69
2022/07/04 09:54:14;;;;;;;6.30;1.13;;;;;;;;;;5019289;28;20128;-69
2022/07/04 09:56:41;;;;;;;4.90;1.05;;;;;;;;;;5021613;28;20049;-69
2022/07/04 09:59:08;;;;;;;2.35;0.80;;;;;;;;;;5010973;28;20063;-69
2022/07/04 10:01:39;;;;;;;6.35;0.98;;;;;;;;;;5015706;28;20045;-69
2022/07/04 10:04:06;;;;;;;2.92;0.90;;;;;;;;;;5019120;28;20053;-68
2022/07/04 10:06:33;;;;;;;4.47;1.10;;;;;;;;;;5017923;28;20049;-68
2022/07/04 10:09:08;;;;;;;4.30;1.08;;;;;;;;;;5018700;28;20053;-69
2022/07/04 10:11:36;;;;;;;6.25;1.40;;;;;;;;;;5019245;28;20511;-69
2022/07/04 10:14:04;;;;;;;4.80;1.20;;;;;;;;;;5014971;28;20049;-68
2022/07/04 10:16:32;;;;;;;4.40;1.13;;;;;;;;;;5018200;28;20045;-69
2022/07/04 10:19:01;;;;;;;8.10;1.30;;;;;;;;;;5014461;28;20104;-69
2022/07/04 10:21:28;;;;;;;6.43;1.25;;;;;;;;;;5019450;28;20057;-68
2022/07/04 10:23:56;;;;;;;4.65;0.98;;;;;;;;;;5018070;28;20102;-69
2022/07/04 10:26:23;;;;;;;5.50;1.23;;;;;;;;;;5013120;28;20050;-69
2022/07/04 10:28:51;;;;;;;3.25;0.88;;;;;;;;;;5018423;28;20699;-68
2022/07/04 10:31:19;;;;;;;3.70;1.17;;;;;;;;;;5016747;28;20061;-68
2022/07/04 10:33:47;;;;;;;5.95;1.23;;;;;;;;;;5020421;28;20496;-68
2022/07/04 10:36:20;;;;;;;3.58;1.05;;;;;;;;;;5019303;28;20054;-69
2022/07/04 10:38:47;;;;;;;;;;;;;;;;;;5018243;28;20047;-70
2022/07/04 10:41:14;;;;;;;5.47;1.17;;;;;;;;;;5013186;28;20309;-69
2022/07/04 10:44:01;;;;;;;6.00;1.38;;;;;;;;;;5019646;28;20058;-69
2022/07/04 10:46:29;;;;;;;6.45;1.55;;;;;;;;;;5008921;28;20045;-69
2022/07/04 10:48:57;;;;;;;7.18;1.58;;;;;;;;;;5016020;28;20107;-69
2022/07/04 10:51:35;;;;;;;4.07;0.98;;;;;;;;;;5019789;28;20053;-69
2022/07/04 10:54:03;;;;;;;7.85;1.33;;;;;;;;;;5019230;28;21467;-69
2022/07/04 10:56:36;;;;;;;6.55;1.30;;;;;;;;;;5024014;28;20041;-69
2022/07/04 10:59:04;;;;;;;6.50;1.40;;;;;;;;;;5022917;28;20077;-68
2022/07/04 11:01:32;;;;;;;8.50;1.70;;;;;;;;;;5021345;28;20053;-69
2022/07/04 11:03:59;;;;;;;5.85;1.17;;;;;;;;;;5006524;28;20057;-69
2022/07/04 11:06:45;;;;;;;4.43;1.13;;;;;;;;;;5023214;28;20573;-69
2022/07/04 11:09:16;;;;;;;4.18;1.13;;;;;;;;;;5022642;28;20664;-69
2022/07/04 11:11:50;;;;;;;3.00;0.98;;;;;;;;;;5023868;28;20094;-69
2022/07/04 11:14:33;;;;;;;5.43;1.23;;;;;;;;;;5022109;28;20045;-69
2022/07/04 11:17:00;;;;;;;;;;;;;;;;;;5022731;28;20045;-69
2022/07/04 11:19:28;;;;;;;4.15;1.10;;;;;;;;;;5023235;28;19948;-68
2022/07/04 11:21:55;;;;;;;4.95;1.50;;;;;;;;;;5021456;28;20049;-69
2022/07/04 11:24:24;;;;;;;7.03;1.13;;;;;;;;;;5023476;28;20073;-69
2022/07/04 11:26:52;;;;;;;4.45;1.25;;;;;;;;;;5016411;28;20539;-69
2022/07/04 11:29:19;;;;;;;4.95;1.20;;;;;;;;;;5019608;28;20054;-69
2022/07/04 11:31:47;;;;;;;6.32;1.40;;;;;;;;;;5023570;28;20045;-69
2022/07/04 11:34:15;;;;;;;6.85;1.23;;;;;;;;;;5021894;28;20050;-69
2022/07/04 11:36:43;;;;;;;3.63;1.10;;;;;;;;;;5008198;28;20452;-69
2022/07/04 11:39:12;;;;;;;4.15;1.10;;;;;;;;;;5023282;28;20049;-68
2022/07/04 11:47:15;;;;;;;4.57;1.10;;;;;;;;;;5021081;28;20041;-69
2022/07/04 11:49:43;;;;;;;5.32;1.20;;;;;;;;;;5023076;28;20687;-69
2022/07/04 11:52:10;;;;;;;6.28;1.00;;;;;;;;;;5018962;28;20046;-69
2022/07/04 11:54:38;;;;;;;5.90;1.10;;;;;;;;;;5020911;28;20548;-70
2022/07/04 11:57:14;;;;;;;3.60;0.90;;;;;;;;;;5014930;28;20087;-69
2022/07/04 11:59:41;;;;;;;5.35;1.40;;;;;;;;;;5020145;28;20894;-70
2022/07/04 12:02:12;;;;;;;5.13;1.50;;;;;;;;;;5019635;28;20120;-70
2022/07/04 12:04:41;;;;;;;4.20;0.93;;;;;;;;;;5023130;28;20144;-69
2022/07/04 12:07:12;;;;;;;4.15;1.10;;;;;;;;;;5017050;28;20076;-69
2022/07/04 12:09:40;;;;;;;2.50;1.02;;;;;;;;;;5019385;28;20049;-70
2022/07/04 12:12:07;;;;;;;4.03;0.90;;;;;;;;;;5024009;28;20046;-69
2022/07/04 12:14:36;;;;;;;3.13;0.93;;;;;;;;;;5021929;28;20050;-70
2022/07/04 12:17:10;;;;;;;4.55;0.85;;;;;;;;;;5019287;28;20057;-69
2022/07/04 12:19:38;;;;;;;3.95;0.90;;;;;;;;;;5004817;28;20057;-69
2022/07/04 12:22:05;;;;;;;2.38;0.90;;;;;;;;;;5022866;28;20049;-70
2022/07/04 12:24:41;;;;;;;4.68;1.00;;;;;;;;;;5024227;28;20076;-69
2022/07/04 12:27:08;;;;;;;3.13;0.90;;;;;;;;;;5019595;28;20057;-70
2022/07/04 12:29:36;;;;;;;2.22;1.00;;;;;;;;;;5020311;28;20122;-70
2022/07/04 12:32:08;;;;;;;2.78;1.00;;;;;;;;;;5015429;28;20049;-70
2022/07/04 12:34:37;;;;;;;5.85;1.30;;;;;;;;;;5022423;28;20479;-70
2022/07/04 12:37:08;;;;;;;3.00;1.00;;;;;;;;;;5018940;28;20669;-70
2022/07/04 12:39:39;;;;;;;5.72;0.90;;;;;;;;;;5006291;28;20049;-69
2022/07/04 12:42:10;;;;;;;3.30;0.80;;;;;;;;;;4994870;28;20055;-69
2022/07/04 12:44:40;;;;;;;5.75;1.20;;;;;;;;;;4998263;28;20567;-69
2022/07/04 12:47:07;;;;;;;3.33;0.77;;;;;;;;;;4999812;28;20486;-69
2022/07/04 12:49:35;;;;;;;3.08;1.00;;;;;;;;;;5021184;28;20198;-69
2022/07/04 12:52:06;;;;;;;3.72;1.00;;;;;;;;;;4987663;28;20509;-69
2022/07/04 12:54:34;;;;;;;4.30;0.95;;;;;;;;;;4996730;28;20057;-69
2022/07/04 12:57:08;;;;;;;1.50;0.73;;;;;;;;;;4999268;28;20057;-70
2022/07/04 12:59:36;;;;;;;2.75;0.80;;;;;;;;;;4986428;28;20054;-70
2022/07/04 13:02:04;;;;;;;3.67;0.90;;;;;;;;;;4997451;28;20389;-70
2022/07/04 13:04:32;;;;;;;3.03;0.90;;;;;;;;;;4983945;28;20085;-70
2022/07/04 13:07:00;;;;;;;2.88;0.90;;;;;;;;;;4984014;28;20081;-69
2022/07/04 13:09:28;;;;;;;3.58;1.00;;;;;;;;;;4998906;28;20050;-69
2022/07/04 13:14:42;;;;;;;4.55;1.20;;;;;;;;;;4999157;28;20053;-70
2022/07/04 13:17:10;;;;;;;3.00;1.00;;;;;;;;;;4976124;28;20061;-70
2022/07/04 13:19:37;;;;;;;2.38;0.93;;;;;;;;;;4996888;28;20120;-70
2022/07/04 13:22:05;;;;;;;3.13;1.10;;;;;;;;;;4980138;28;20061;-69
2022/07/04 13:24:32;;;;;;;3.25;1.00;;;;;;;;;;5001217;28;20045;-69
2022/07/04 13:26:59;;;;;;;2.95;1.00;;;;;;;;;;5001274;28;20073;-69
2022/07/04 13:29:26;;;;;;;5.50;1.13;;;;;;;;;;4997044;28;20049;-69
2022/07/04 13:31:53;;;;;;;4.70;1.17;;;;;;;;;;4995228;28;20113;-70
2022/07/04 13:34:22;;;;;;;5.03;0.80;;;;;;;;;;5000811;28;20546;-69
2022/07/04 13:36:51;;;;;;;3.28;0.90;;;;;;;;;;5002232;28;20049;-69
2022/07/04 13:39:18;;;;;;;2.42;0.77;;;;;;;;;;5001532;28;20046;-69
2022/07/04 13:41:46;;;;;;;3.03;0.80;;;;;;;;;;5000171;28;20377;-70
2022/07/04 13:44:15;;;;;;;3.17;0.95;;;;;;;;;;5000282;28;20131;-70
2022/07/04 13:46:43;;;;;;;3.50;1.10;;;;;;;;;;4998983;28;20081;-70
2022/07/04 13:49:11;;;;;;;2.00;0.80;;;;;;;;;;4996846;28;20492;-70
2022/07/04 13:51:40;;;;;;;4.30;1.10;;;;;;;;;;5012525;28;20068;-69
2022/07/04 13:54:08;;;;;;;4.05;1.00;;;;;;;;;;5014890;28;20605;-69
2022/07/04 13:56:35;;;;;;;3.17;0.90;;;;;;;;;;5016364;28;20056;-69
2022/07/04 13:59:03;;;;;;;4.03;0.80;;;;;;;;;;5021374;28;20139;-69
2022/07/04 14:01:30;;;;;;;2.75;0.90;;;;;;;;;;5019847;28;20064;-69
2022/07/04 14:03:57;;;;;;;3.35;1.13;;;;;;;;;;5019257;28;20564;-70
2022/07/04 14:06:24;;;;;;;2.45;0.80;;;;;;;;;;5003814;28;20061;-67
2022/07/04 14:08:53;;;;;;;2.15;0.90;;;;;;;;;;5017605;28;20587;-67
2022/07/04 14:11:20;;;;;;;2.75;0.90;;;;;;;;;;5005697;28;20054;-67
2022/07/04 14:13:48;;;;;;;3.63;1.00;;;;;;;;;;5017380;28;20053;-66
2022/07/04 14:16:16;;;;;;;5.97;1.00;;;;;;;;;;5019836;28;20049;-67
2022/07/04 14:18:43;;;;;;;2.30;1.02;;;;;;;;;;5012313;28;20448;-67
2022/07/04 14:21:10;;;;;;;3.92;0.95;;;;;;;;;;5014978;28;20108;-67
2022/07/04 14:23:45;;;;;;;2.00;0.90;;;;;;;;;;4998509;28;20058;-67
2022/07/04 14:26:14;;;;;;;4.45;1.30;;;;;;;;;;5016192;28;20052;-67
2022/07/04 14:28:42;;;;;;;2.97;0.95;;;;;;;;;;5020061;28;20830;-67
2022/07/04 14:31:09;;;;;;;3.67;1.00;;;;;;;;;;5022809;28;20112;-67
2022/07/04 14:33:36;;;;;;;3.10;1.17;;;;;;;;;;5018725;28;20045;-67
2022/07/04 14:36:06;;;;;;;4.70;1.10;;;;;;;;;;5018661;28;20056;-67
2022/07/04 14:38:33;;;;;;;2.00;1.00;;;;;;;;;;5019958;28;20050;-66
2022/07/04 14:41:09;;;;;;;1.90;0.82;;;;;;;;;;5020783;28;20042;-68
2022/07/04 14:43:41;;;;;;;2.30;1.00;;;;;;;;;;5022987;28;20080;-67
2022/07/04 14:46:08;;;;;;;2.25;1.25;;;;;;;;;;5021902;28;20065;-67
2022/07/04 14:48:35;;;;;;;3.72;1.00;;;;;;;;;;5021352;28;20049;-67
2022/07/04 14:51:03;;;;;;;2.75;1.00;;;;;;;;;;5016026;28;20570;-67
2022/07/04 14:53:30;;;;;;;2.05;0.82;;;;;;;;;;5018802;28;20049;-67
2022/07/04 14:55:57;;;;;;;3.38;1.05;;;;;;;;;;5021421;28;21344;-66
2022/07/04 14:58:25;;;;;;;3.38;1.05;;;;;;;;;;5001714;28;20046;-67
2022/07/04 15:00:53;;;;;;;2.30;1.00;;;;;;;;;;5020321;28;20057;-67
2022/07/04 15:03:21;;;;;;;4.85;1.00;;;;;;;;;;5019396;28;20049;-67
2022/07/04 15:05:48;;;;;;;4.40;1.00;;;;;;;;;;5017947;28;20049;-67
2022/07/04 15:08:15;;;;;;;1.23;0.80;;;;;;;;;;4999092;28;20045;-67